createdAt,value
2023-02-03T00:00:11.038Z,8.63
2023-02-03T00:02:39.831Z,8.30
2023-02-03T00:05:09.564Z,7.07
2023-02-03T00:07:39.835Z,8.53
2023-02-03T00:10:09.528Z,7.60
2023-02-03T00:12:38.382Z,7.27
2023-02-03T00:15:09.786Z,7.80
2023-02-03T00:17:38.484Z,6.43
2023-02-03T00:20:08.057Z,7.00
2023-02-03T00:22:36.796Z,9.10
2023-02-03T00:25:06.463Z,7.93
2023-02-03T00:27:35.506Z,8.30
2023-02-03T00:30:04.645Z,7.83
2023-02-03T00:32:34.824Z,9.30
2023-02-03T00:35:03.556Z,8.80
2023-02-03T00:37:32.316Z,9.17
2023-02-03T00:40:01.079Z,9.00
2023-02-03T00:42:29.787Z,8.50
2023-02-03T00:44:58.524Z,10.90
2023-02-03T00:47:27.218Z,10.60
2023-02-03T00:49:58.286Z,9.93
2023-02-03T00:52:27.256Z,8.60
2023-02-03T00:54:56.093Z,11.00
2023-02-03T00:57:24.804Z,10.33
2023-02-03T00:59:54.411Z,10.60
2023-02-03T01:02:23.496Z,8.70
2023-02-03T01:04:52.282Z,7.50
2023-02-03T01:07:22.415Z,8.37
2023-02-03T01:09:51.133Z,8.10
2023-02-03T01:12:19.844Z,7.60
2023-02-03T01:14:48.541Z,10.23
2023-02-03T01:17:17.224Z,8.63
2023-02-03T01:19:45.924Z,9.30
2023-02-03T01:22:14.599Z,9.00
2023-02-03T01:24:44.689Z,8.97
2023-02-03T01:27:13.443Z,10.03
2023-02-03T01:29:42.178Z,11.23
2023-02-03T01:32:10.825Z,9.20
2023-02-03T01:34:39.651Z,11.90
2023-02-03T01:37:08.399Z,10.30
2023-02-03T01:39:37.333Z,9.67
2023-02-03T01:42:07.526Z,8.87
2023-02-03T01:44:45.371Z,9.53
2023-02-03T01:47:23.579Z,9.40
2023-02-03T01:49:58.044Z,7.97
2023-02-03T01:52:27.508Z,9.17
2023-02-03T01:55:00.125Z,8.73
2023-02-03T01:57:35.097Z,8.73
2023-02-03T02:00:06.300Z,9.37
2023-02-03T02:02:35.126Z,10.93
2023-02-03T02:05:08.264Z,9.00
2023-02-03T02:07:38.903Z,8.90
2023-02-03T02:10:08.633Z,10.03
2023-02-03T02:12:38.885Z,10.13
2023-02-03T02:15:08.921Z,8.80
2023-02-03T02:18:13.284Z,9.40
2023-02-03T02:21:24.425Z,10.27
2023-02-03T02:24:24.524Z,10.33
2023-02-03T02:27:02.056Z,8.37
2023-02-03T02:30:06.365Z,9.07
2023-02-03T02:32:50.409Z,9.50
2023-02-03T02:35:27.346Z,10.47
2023-02-03T02:38:03.986Z,9.30
2023-02-03T02:40:37.950Z,9.67
2023-02-03T02:43:12.804Z,11.03
2023-02-03T02:45:49.572Z,9.53
2023-02-03T02:48:24.502Z,10.77
2023-02-03T02:50:57.840Z,9.93
2023-02-03T02:53:30.245Z,9.50
2023-02-03T02:56:00.175Z,8.77
2023-02-03T02:58:30.885Z,9.30
2023-02-03T03:01:00.179Z,9.03
2023-02-03T03:03:30.342Z,8.43
2023-02-03T03:06:03.784Z,9.63
2023-02-03T03:08:39.512Z,8.17
2023-02-03T03:11:08.863Z,8.00
2023-02-03T03:13:41.602Z,9.70
2023-02-03T03:16:12.245Z,8.10
2023-02-03T03:18:46.035Z,8.67
2023-02-03T03:21:19.083Z,7.93
2023-02-03T03:23:51.222Z,8.00
2023-02-03T03:26:28.035Z,7.60
2023-02-03T03:29:03.130Z,8.10
2023-02-03T03:31:32.233Z,9.10
2023-02-03T03:34:02.662Z,8.33
2023-02-03T03:36:38.366Z,9.83
2023-02-03T03:39:13.429Z,7.47
2023-02-03T03:41:51.316Z,8.20
2023-02-03T03:44:23.250Z,8.73
2023-02-03T03:46:56.392Z,8.83
2023-02-03T03:49:28.360Z,8.13
2023-02-03T03:51:59.909Z,8.47
2023-02-03T03:54:30.857Z,8.73
2023-02-03T03:57:03.337Z,8.57
2023-02-03T03:59:35.746Z,8.63
2023-02-03T04:02:05.746Z,8.57
2023-02-03T04:04:39.137Z,8.43
2023-02-03T04:07:07.948Z,8.77
2023-02-03T04:09:37.250Z,7.17
2023-02-03T04:12:08.791Z,7.43
2023-02-03T04:14:39.585Z,8.07
2023-02-03T04:17:08.566Z,8.00
2023-02-03T04:19:38.669Z,7.20
2023-02-03T04:22:07.310Z,7.73
2023-02-03T04:24:35.958Z,6.30
2023-02-03T04:27:05.492Z,7.10
2023-02-03T04:29:34.493Z,6.27
2023-02-03T04:32:03.210Z,6.30
2023-02-03T04:34:31.982Z,7.00
2023-02-03T04:37:02.087Z,7.33
2023-02-03T04:39:30.722Z,6.60
2023-02-03T04:41:59.458Z,7.00
2023-02-03T04:44:28.194Z,7.63
2023-02-03T04:46:56.787Z,7.23
2023-02-03T04:49:25.447Z,6.20
2023-02-03T04:51:54.120Z,6.57
2023-02-03T04:54:24.202Z,5.63
2023-02-03T04:56:52.852Z,6.10
2023-02-03T04:59:21.490Z,5.27
2023-02-03T05:01:50.198Z,5.17
2023-02-03T05:04:18.967Z,6.23
2023-02-03T05:06:47.655Z,6.20
2023-02-03T05:09:17.097Z,6.70
2023-02-03T05:11:47.198Z,5.37
2023-02-03T05:14:15.945Z,6.43
2023-02-03T05:16:45.129Z,6.37
2023-02-03T05:19:14.920Z,6.43
2023-02-03T05:21:43.628Z,6.20
2023-02-03T05:24:12.559Z,5.97
2023-02-03T05:26:41.191Z,7.30
2023-02-03T05:29:11.986Z,6.53
2023-02-03T05:31:40.714Z,5.80
2023-02-03T05:34:09.508Z,7.40
2023-02-03T05:36:38.179Z,4.37
2023-02-03T05:39:06.917Z,6.37
2023-02-03T05:41:52.831Z,6.63
2023-02-03T05:44:23.650Z,7.57
2023-02-03T05:46:53.673Z,7.10
2023-02-03T05:49:23.415Z,6.20
2023-02-03T05:51:53.606Z,7.73
2023-02-03T05:54:22.177Z,6.87
2023-02-03T05:56:50.920Z,7.33
2023-02-03T05:59:19.568Z,5.90
2023-02-03T06:01:49.609Z,7.10
2023-02-03T06:04:18.487Z,7.63
2023-02-03T06:06:47.958Z,7.30
2023-02-03T06:09:16.597Z,8.90
2023-02-03T06:11:46.066Z,7.73
2023-02-03T06:14:14.661Z,8.03
2023-02-03T06:16:43.349Z,7.27
2023-02-03T06:19:16.000Z,8.73
2023-02-03T06:21:44.969Z,7.27
2023-02-03T06:24:13.779Z,8.43
2023-02-03T06:26:42.412Z,8.33
2023-02-03T06:29:11.131Z,8.23
2023-02-03T06:31:39.831Z,8.60
2023-02-03T06:34:08.891Z,8.47
2023-02-03T06:36:39.384Z,8.37
2023-02-03T06:39:08.285Z,7.80
2023-02-03T06:41:36.895Z,7.47
2023-02-03T06:44:05.800Z,7.60
2023-02-03T06:46:34.795Z,9.13
2023-02-03T06:49:03.644Z,8.33
2023-02-03T06:51:32.288Z,8.63
2023-02-03T06:54:03.660Z,9.03
2023-02-03T06:56:32.701Z,7.27
2023-02-03T06:59:01.269Z,9.00
2023-02-03T07:01:29.968Z,9.00
2023-02-03T07:03:59.024Z,9.90
2023-02-03T07:06:32.222Z,7.40
2023-02-03T07:09:03.313Z,8.70
2023-02-03T07:11:32.470Z,9.03
2023-02-03T07:14:01.143Z,7.63
2023-02-03T07:16:29.723Z,9.10
2023-02-03T07:18:58.468Z,7.73
2023-02-03T07:21:27.517Z,8.80
2023-02-03T07:23:56.366Z,9.10
2023-02-03T07:26:26.825Z,9.80
2023-02-03T07:28:55.442Z,7.80
2023-02-03T07:31:24.401Z,7.33
2023-02-03T07:33:53.220Z,10.10
2023-02-03T07:36:21.840Z,10.57
2023-02-03T07:38:50.636Z,10.63
2023-02-03T07:41:19.260Z,9.87
2023-02-03T07:43:49.286Z,7.10
2023-02-03T07:46:18.056Z,8.97
2023-02-03T07:48:46.651Z,8.07
2023-02-03T07:51:15.311Z,9.17
2023-02-03T07:53:43.940Z,7.97
2023-02-03T07:56:13.430Z,6.93
2023-02-03T07:58:42.088Z,7.37
2023-02-03T08:01:17.233Z,7.90
2023-02-03T08:03:46.186Z,6.60
2023-02-03T08:06:14.923Z,7.83
2023-02-03T08:08:44.359Z,9.10
2023-02-03T08:11:13.215Z,8.23
2023-02-03T08:13:42.019Z,8.17
2023-02-03T08:16:10.865Z,9.40
2023-02-03T08:18:41.318Z,7.97
2023-02-03T08:21:10.190Z,7.83
2023-02-03T08:23:39.004Z,8.73
2023-02-03T08:26:07.808Z,7.23
2023-02-03T08:28:36.677Z,8.60
2023-02-03T08:31:11.674Z,9.10
2023-02-03T08:33:41.937Z,7.80
2023-02-03T08:36:12.792Z,8.23
2023-02-03T08:38:56.669Z,7.07
2023-02-03T08:41:26.950Z,9.07
2023-02-03T08:43:58.428Z,9.33
2023-02-03T08:46:34.280Z,8.90
2023-02-03T08:49:11.935Z,9.20
2023-02-03T08:51:57.846Z,8.30
2023-02-03T08:54:29.866Z,8.57
2023-02-03T08:57:03.340Z,8.67
2023-02-03T08:59:41.264Z,8.37
2023-02-03T09:02:21.901Z,8.73
2023-02-03T09:04:53.497Z,9.60
2023-02-03T09:07:23.122Z,10.80
2023-02-03T09:09:51.884Z,8.60
2023-02-03T09:12:20.633Z,9.13
2023-02-03T09:14:49.341Z,9.47
2023-02-03T09:17:18.398Z,9.67
2023-02-03T09:19:47.055Z,10.00
2023-02-03T09:22:17.484Z,10.07
2023-02-03T09:24:46.322Z,9.77
2023-02-03T09:27:14.936Z,10.70
2023-02-03T09:29:43.614Z,10.97
2023-02-03T09:32:14.440Z,11.47
2023-02-03T09:34:44.395Z,12.73
2023-02-03T09:37:13.117Z,12.13
2023-02-03T09:39:43.556Z,13.30
2023-02-03T09:42:38.042Z,12.40
2023-02-03T09:45:22.839Z,11.20
2023-02-03T09:47:55.479Z,12.03
2023-02-03T09:50:28.202Z,12.67
2023-02-03T09:52:59.217Z,14.10
2023-02-03T09:55:35.641Z,12.97
2023-02-03T09:58:08.051Z,11.30
2023-02-03T10:00:41.716Z,13.07
2023-02-03T10:03:20.677Z,14.60
2023-02-03T10:05:59.579Z,14.47
2023-02-03T10:08:45.535Z,14.37
2023-02-03T10:11:26.885Z,14.00
2023-02-03T10:14:07.735Z,12.80
2023-02-03T10:16:51.387Z,14.77
2023-02-03T10:19:25.825Z,14.63
2023-02-03T10:21:59.818Z,12.50
2023-02-03T10:24:40.496Z,13.77
2023-02-03T10:27:19.156Z,14.73
2023-02-03T10:29:58.493Z,15.83
2023-02-03T10:32:29.152Z,16.27
2023-02-03T10:35:08.019Z,14.77
2023-02-03T10:37:43.319Z,15.70
2023-02-03T10:40:14.779Z,14.93
2023-02-03T10:43:05.758Z,14.73
2023-02-03T10:45:38.763Z,13.70
2023-02-03T10:48:12.514Z,14.00
2023-02-03T10:50:46.199Z,14.40
2023-02-03T10:53:33.533Z,15.33
2023-02-03T10:56:08.369Z,15.80
2023-02-03T10:58:40.515Z,16.27
2023-02-03T11:01:12.576Z,17.40
2023-02-03T11:03:44.370Z,17.27
2023-02-03T11:06:16.368Z,15.33
2023-02-03T11:08:48.739Z,16.03
2023-02-03T11:11:26.176Z,14.50
2023-02-03T11:17:40.512Z,14.73
2023-02-03T11:20:17.851Z,13.90
2023-02-03T11:22:47.312Z,14.47
2023-02-03T11:25:22.464Z,13.80
2023-02-03T11:27:51.675Z,13.40
2023-02-03T11:30:27.964Z,13.90
2023-02-03T11:32:59.578Z,13.27
2023-02-03T11:35:29.840Z,16.00
2023-02-03T11:37:59.933Z,16.70
2023-02-03T11:40:31.797Z,14.17
2023-02-03T11:43:10.177Z,13.13
2023-02-03T11:45:55.255Z,13.23
2023-02-03T11:48:39.139Z,13.10
2023-02-03T11:51:24.655Z,12.60
2023-02-03T11:54:08.899Z,12.17
2023-02-03T11:56:55.506Z,11.63
2023-02-03T11:59:55.972Z,9.10
2023-02-03T12:03:18.635Z,7.30
2023-02-03T12:06:15.580Z,7.23
2023-02-03T12:08:59.613Z,6.77
2023-02-03T12:11:40.460Z,4.80
2023-02-03T12:14:35.563Z,4.30
2023-02-03T12:17:39.989Z,4.10
2023-02-03T12:20:24.985Z,1.93
2023-02-03T12:23:06.497Z,2.00
2023-02-03T12:25:45.701Z,2.27
2023-02-03T12:28:33.826Z,1.97
2023-02-03T12:31:12.966Z,2.23
2023-02-03T12:33:47.256Z,2.53
2023-02-03T12:36:22.430Z,2.40
2023-02-03T12:39:02.102Z,2.97
2023-02-03T12:41:40.039Z,2.10
2023-02-03T12:44:26.087Z,2.40
2023-02-03T12:47:02.733Z,2.70
2023-02-03T12:49:41.812Z,2.17
2023-02-03T12:52:18.893Z,1.97
2023-02-03T12:55:08.333Z,2.20
2023-02-03T12:57:43.021Z,2.30
2023-02-03T13:00:27.149Z,2.40
2023-02-03T13:03:07.757Z,2.63
2023-02-03T13:05:43.622Z,1.90
2023-02-03T13:08:24.306Z,2.73
2023-02-03T13:11:00.454Z,3.37
2023-02-03T13:13:36.417Z,2.53
2023-02-03T13:16:09.982Z,2.70
2023-02-03T13:18:42.003Z,2.63
2023-02-03T13:21:15.439Z,2.37
2023-02-03T13:23:48.472Z,3.23
2023-02-03T13:26:54.445Z,2.83
2023-02-03T13:29:36.820Z,3.23
2023-02-03T13:32:17.092Z,4.27
2023-02-03T13:35:06.241Z,3.83
2023-02-03T13:38:03.335Z,3.10
2023-02-03T13:40:45.835Z,3.93
2023-02-03T13:43:36.892Z,3.43
2023-02-03T13:46:14.258Z,3.10
2023-02-03T13:48:47.274Z,2.43
2023-02-03T13:51:18.733Z,2.70
2023-02-03T13:53:48.982Z,3.50
2023-02-03T13:56:21.982Z,2.70
2023-02-03T13:59:07.827Z,3.07
2023-02-03T14:01:38.822Z,3.10
2023-02-03T14:04:09.261Z,2.80
2023-02-03T14:07:03.676Z,2.20
2023-02-03T14:09:43.760Z,3.23
2023-02-03T14:12:37.837Z,3.33
2023-02-03T14:15:24.599Z,3.03
2023-02-03T14:18:05.056Z,2.73
2023-02-03T14:26:04.326Z,3.10
2023-02-03T14:32:09.540Z,2.17
2023-02-03T14:34:41.874Z,2.53
2023-02-03T14:37:14.402Z,2.10
2023-02-03T14:40:19.024Z,2.77
2023-02-03T14:43:11.020Z,2.70
2023-02-03T14:46:12.017Z,2.10
2023-02-03T14:49:16.684Z,2.03
2023-02-03T14:52:09.412Z,1.63
2023-02-03T14:55:05.211Z,2.30
2023-02-03T14:57:44.004Z,2.00
2023-02-03T15:00:31.705Z,2.60
2023-02-03T15:03:28.969Z,2.97
2023-02-03T15:06:03.467Z,3.57
2023-02-03T15:08:45.736Z,2.30
2023-02-03T15:11:28.119Z,3.10
2023-02-03T15:13:58.668Z,3.10
2023-02-03T15:16:29.481Z,3.10
2023-02-03T15:19:09.839Z,3.90
2023-02-03T15:21:43.855Z,2.50
2023-02-03T15:24:19.155Z,2.83
2023-02-03T15:26:49.440Z,2.83
2023-02-03T15:29:29.809Z,3.20
2023-02-03T15:32:19.586Z,3.50
2023-02-03T15:34:51.493Z,3.70
2023-02-03T15:37:25.290Z,2.60
2023-02-03T15:40:04.098Z,3.70
2023-02-03T15:42:38.080Z,2.60
2023-02-03T15:45:16.684Z,3.43
2023-02-03T15:47:53.604Z,3.80
2023-02-03T15:50:32.248Z,3.70
2023-02-03T15:53:07.654Z,3.87
2023-02-03T15:55:40.733Z,4.17
2023-02-03T15:58:19.556Z,3.23
2023-02-03T16:00:52.151Z,3.50
2023-02-03T16:03:23.130Z,5.50
2023-02-03T16:05:52.811Z,4.13
2023-02-03T16:08:40.689Z,4.17
2023-02-03T16:11:31.336Z,3.70
2023-02-03T16:14:01.950Z,3.60
2023-02-03T16:16:36.513Z,3.30
2023-02-03T16:19:07.872Z,3.50
2023-02-03T16:21:38.669Z,3.20
2023-02-03T16:24:34.308Z,2.90
2023-02-03T16:27:38.420Z,3.40
2023-02-03T16:30:44.047Z,3.07
2023-02-03T16:33:34.352Z,1.90
2023-02-03T16:36:28.573Z,1.90
2023-02-03T16:39:15.022Z,2.30
2023-02-03T16:42:02.535Z,2.07
2023-02-03T16:44:48.673Z,2.03
2023-02-03T16:47:43.818Z,5.77
2023-02-03T16:50:38.692Z,3.20
2023-02-03T16:53:11.191Z,2.43
2023-02-03T16:55:41.457Z,3.30
2023-02-03T16:58:12.830Z,4.50
2023-02-03T17:00:43.137Z,3.50
2023-02-03T17:03:14.434Z,4.57
2023-02-03T17:05:45.974Z,3.17
2023-02-03T17:08:15.719Z,2.77
2023-02-03T17:10:46.011Z,3.23
2023-02-03T17:13:17.597Z,4.63
2023-02-03T17:15:49.133Z,3.80
2023-02-03T17:18:19.455Z,3.67
2023-02-03T17:20:51.702Z,3.30
2023-02-03T17:23:21.764Z,4.03
2023-02-03T17:25:52.213Z,4.53
2023-02-03T17:28:55.339Z,4.70
2023-02-03T17:31:26.098Z,5.17
2023-02-03T17:33:58.194Z,3.63
2023-02-03T17:36:27.872Z,5.40
2023-02-03T17:55:34.926Z,4.60
2023-02-03T17:58:04.362Z,4.70
2023-02-03T18:00:35.262Z,5.17
2023-02-03T18:03:05.556Z,3.97
2023-02-03T18:05:37.473Z,4.40
2023-02-03T18:08:16.257Z,3.90
2023-02-03T18:10:47.229Z,5.43
2023-02-03T18:13:16.348Z,5.30
2023-02-03T18:15:46.795Z,3.83
2023-02-03T18:18:16.139Z,4.20
2023-02-03T18:20:45.571Z,5.73
2023-02-03T18:23:15.481Z,5.40
2023-02-03T18:25:45.267Z,4.80
2023-02-03T18:28:17.699Z,5.07
2023-02-03T18:30:50.503Z,4.60
2023-02-03T18:33:23.987Z,3.90
2023-02-03T18:35:53.968Z,4.47
2023-02-03T18:38:24.957Z,4.90
2023-02-03T18:40:55.741Z,4.33
2023-02-03T18:43:27.147Z,4.70
2023-02-03T18:45:59.718Z,4.57
2023-02-03T18:48:31.953Z,4.53
2023-02-03T18:51:03.894Z,5.33
2023-02-03T18:53:34.836Z,5.17
2023-02-03T18:56:09.019Z,3.43
2023-02-03T18:58:42.796Z,4.20
2023-02-03T19:01:24.649Z,3.20
2023-02-03T19:03:55.437Z,5.67
2023-02-03T19:06:30.468Z,3.67
2023-02-03T19:09:02.565Z,4.43
2023-02-03T19:11:34.579Z,3.97
2023-02-03T19:14:06.879Z,3.77
2023-02-03T19:16:40.261Z,5.00
2023-02-03T19:19:12.103Z,4.23
2023-02-03T19:21:47.086Z,4.93
2023-02-03T19:24:28.784Z,4.50
2023-02-03T19:27:03.965Z,3.57
2023-02-03T19:29:35.830Z,4.27
2023-02-03T19:32:10.612Z,4.43
2023-02-03T19:34:41.996Z,4.00
2023-02-03T19:37:13.323Z,4.03
2023-02-03T19:39:45.430Z,3.87
2023-02-03T19:42:15.582Z,3.40
2023-02-03T19:44:47.802Z,2.70
2023-02-03T19:47:20.605Z,3.40
2023-02-03T19:49:52.093Z,4.07
2023-02-03T19:52:22.416Z,3.30
2023-02-03T19:54:55.568Z,3.30
2023-02-03T19:57:28.969Z,3.90
2023-02-03T20:00:05.169Z,4.00
2023-02-03T20:02:37.967Z,5.53
2023-02-03T20:05:10.973Z,3.80
2023-02-03T20:07:42.889Z,4.00
2023-02-03T20:10:16.258Z,5.40
2023-02-03T20:12:46.981Z,5.27
2023-02-03T20:15:19.046Z,4.00
2023-02-03T20:17:57.944Z,6.30
2023-02-03T20:20:28.732Z,5.50
2023-02-03T20:22:59.647Z,4.63
2023-02-03T20:25:30.401Z,4.87
2023-02-03T20:28:04.570Z,4.67
2023-02-03T20:30:37.188Z,4.93
2023-02-03T20:33:11.767Z,4.40
2023-02-03T20:36:01.525Z,6.23
2023-02-03T20:38:35.413Z,5.60
2023-02-03T20:41:06.895Z,4.03
2023-02-03T20:43:39.135Z,3.80
2023-02-03T20:46:14.642Z,3.93
2023-02-03T20:48:48.412Z,4.00
2023-02-03T20:51:21.922Z,3.67
2023-02-03T20:53:53.662Z,4.33
2023-02-03T20:56:26.318Z,4.77
2023-02-03T20:58:57.568Z,3.60
2023-02-03T21:01:28.945Z,3.40
2023-02-03T21:04:21.044Z,3.50
2023-02-03T21:06:56.563Z,4.40
2023-02-03T21:09:28.898Z,3.53
2023-02-03T21:11:59.434Z,6.00
2023-02-03T21:14:36.211Z,5.10
2023-02-03T21:17:09.421Z,5.63
2023-02-03T21:19:42.686Z,4.60
2023-02-03T21:22:19.548Z,5.17
2023-02-03T21:24:54.687Z,4.80
2023-02-03T21:27:30.942Z,4.33
2023-02-03T21:30:04.801Z,4.00
2023-02-03T21:32:39.963Z,4.57
2023-02-03T21:35:37.825Z,5.20
2023-02-03T21:38:32.199Z,4.90
2023-02-03T21:41:04.502Z,4.23
2023-02-03T21:43:36.905Z,4.27
2023-02-03T21:46:06.990Z,3.37
2023-02-03T21:48:41.021Z,2.90
2023-02-03T21:51:20.867Z,4.40
2023-02-03T21:53:56.086Z,4.03
2023-02-03T21:56:28.305Z,3.30
2023-02-03T21:59:01.069Z,3.00
2023-02-03T22:01:39.432Z,3.20
2023-02-03T22:04:08.742Z,3.60
2023-02-03T22:06:46.034Z,3.30
2023-02-03T22:09:17.104Z,3.00
2023-02-03T22:11:46.722Z,2.97
2023-02-03T22:14:16.649Z,3.47
2023-02-03T22:16:46.645Z,2.43
2023-02-03T22:19:17.766Z,2.60
2023-02-03T22:21:51.038Z,2.17
2023-02-03T22:24:20.538Z,2.83
2023-02-03T22:26:49.288Z,2.83
2023-02-03T22:29:18.246Z,2.20
2023-02-03T22:31:47.092Z,3.30
2023-02-03T22:34:15.923Z,2.13
2023-02-03T22:36:44.946Z,2.40
2023-02-03T22:39:15.514Z,2.53
2023-02-03T22:41:44.305Z,2.30
2023-02-03T22:44:16.423Z,2.20
2023-02-03T22:46:45.271Z,2.07
2023-02-03T22:49:14.002Z,1.60
2023-02-03T22:51:42.830Z,2.17
2023-02-03T22:54:11.657Z,2.47
2023-02-03T22:56:41.901Z,1.93
2023-02-03T22:59:10.681Z,2.50
2023-02-03T23:01:39.535Z,2.13
2023-02-03T23:04:08.425Z,1.90
2023-02-03T23:06:37.164Z,2.10
2023-02-03T23:09:06.163Z,2.60
2023-02-03T23:11:35.025Z,2.03
2023-02-03T23:14:05.237Z,2.10
2023-02-03T23:16:34.077Z,1.57
2023-02-03T23:19:02.866Z,1.80
2023-02-03T23:21:32.088Z,1.70
2023-02-03T23:24:00.916Z,2.43
2023-02-03T23:26:29.722Z,1.63
2023-02-03T23:28:58.512Z,2.40
2023-02-03T23:31:28.793Z,1.60
2023-02-03T23:34:14.426Z,1.33
2023-02-03T23:36:43.225Z,2.03
2023-02-03T23:39:12.083Z,1.23
2023-02-03T23:41:40.848Z,1.70
2023-02-03T23:44:09.621Z,1.77
2023-02-03T23:46:39.851Z,1.53
2023-02-03T23:49:08.730Z,1.57
2023-02-03T23:51:37.564Z,2.00
2023-02-03T23:54:06.463Z,1.87
2023-02-03T23:56:35.276Z,1.40
2023-02-03T23:59:04.068Z,1.33
